This is the latest recevied weather packets stored in our database for station/object W3AJR. If no packets are shown the sender has not sent any weather packets the latest 10 day(s).
| Time | Temp. | Humidity | Pressure | Rain* | Wind** | Luminosity | Snow |
|---|---|---|---|---|---|---|---|
| 1777611397 | 7.78° C | 74% | 1014.2 hPa | 0 mm | - | 0 W/m² | - |
| 1777611095 | 7.78° C | 74% | 1014.3 hPa | 0 mm | - | 0 W/m² | - |
| 1777610795 | 7.78° C | 74% | 1014.1 hPa | 0 mm | - | 0 W/m² | - |
| 1777610494 | 7.78° C | 74% | 1014 hPa | 0 mm | - | 0 W/m² | - |
| 1777610190 | 7.78° C | 75% | 1014 hPa | 0 mm | - | 0 W/m² | - |
| 1777609887 | 7.78° C | 75% | 1014 hPa | 0 mm | - | 0 W/m² | - |
| 1777609583 | 7.78° C | 74% | 1014 hPa | 0 mm | - | 0 W/m² | - |
| 1777609281 | 7.78° C | 73% | 1014.1 hPa | 0 mm | - | 0 W/m² | - |
| 1777608979 | 8.33° C | 72% | 1013.8 hPa | 0 mm | - | 0 W/m² | - |
| 1777608675 | 8.33° C | 71% | 1013.9 hPa | 0 mm | - | 0 W/m² | - |
| 1777608372 | 8.89° C | 70% | 1013.8 hPa | 0 mm | - | 0 W/m² | - |
| 1777608070 | 8.89° C | 69% | 1013.8 hPa | 0 mm | - | 0 W/m² | - |
| 1777607766 | 8.89° C | 70% | 1013.9 hPa | 0 mm | - | 0 W/m² | - |
| 1777607463 | 8.89° C | 70% | 1014 hPa | 0 mm | - | 0 W/m² | - |
| 1777607159 | 9.44° C | 70% | 1014 hPa | 0 mm | - | 0 W/m² | - |
| 1777606855 | 9.44° C | 68% | 1013.8 hPa | 0 mm | - | 0 W/m² | - |
| 1777606550 | 9.44° C | 66% | 1014 hPa | 0 mm | - | 0 W/m² | - |
| 1777606245 | 10° C | 65% | 1014 hPa | 0 mm | - | 0 W/m² | - |
| 1777605942 | 10° C | 65% | 1013.9 hPa | 0 mm | - | 0 W/m² | - |
| 1777605637 | 8.89° C | 67% | 1014.1 hPa | 0 mm | - | 0 W/m² | - |
| 1777605337 | 8.33° C | 73% | 1014 hPa | 0 mm | - | 0 W/m² | - |
| 1777605033 | 8.89° C | 72% | 1014 hPa | 0 mm | - | 0 W/m² | - |
| 1777604729 | 9.44° C | 71% | 1013.9 hPa | 0 mm | - | 0 W/m² | - |
| 1777604426 | 9.44° C | 70% | 1014 hPa | 0 mm | - | 0 W/m² | - |
| 1777604126 | 10° C | 68% | 1013.9 hPa | 0 mm | - | 0 W/m² | - |
* Rain latest hour (hover to see other rain measurements)
** Current wind speed in m/s (hover to see current wind gust speed)